createdAt,value
2019-04-28T00:01:57.322Z,6.10
2019-04-28T00:04:25.529Z,6.08
2019-04-28T00:06:54.033Z,6.04
2019-04-28T00:09:23.165Z,6.04
2019-04-28T00:11:53.364Z,6.01
2019-04-28T00:14:22.123Z,5.98
2019-04-28T00:16:51.156Z,5.95
2019-04-28T00:19:20.948Z,5.97
2019-04-28T00:21:57.091Z,5.98
2019-04-28T00:24:43.186Z,5.93
2019-04-28T00:27:12.044Z,5.93
2019-04-28T00:29:45.677Z,5.94
2019-04-28T00:32:11.212Z,5.91
2019-04-28T00:34:41.272Z,5.89
2019-04-28T00:37:17.412Z,5.87
2019-04-28T00:39:45.608Z,5.90
2019-04-28T00:42:13.809Z,5.91
2019-04-28T00:44:43.401Z,5.91
2019-04-28T00:47:11.789Z,5.91
2019-04-28T00:49:48.985Z,5.90
2019-04-28T00:52:17.819Z,5.89
2019-04-28T00:54:46.554Z,5.90
2019-04-28T00:57:15.039Z,5.92
2019-04-28T00:59:54.018Z,5.91
2019-04-28T01:02:15.078Z,5.90
2019-04-28T01:04:43.262Z,5.92
2019-04-28T01:07:11.581Z,5.93
2019-04-28T01:09:41.497Z,5.92
2019-04-28T01:12:11.222Z,5.90
2019-04-28T01:14:40.979Z,5.91
2019-04-28T01:17:14.850Z,5.93
2019-04-28T01:19:49.629Z,5.94
2019-04-28T01:22:20.179Z,5.95
2019-04-28T01:24:49.725Z,5.96
2019-04-28T01:27:25.650Z,5.94
2019-04-28T01:30:05.361Z,5.95
2019-04-28T01:32:34.510Z,5.95
2019-04-28T01:35:02.778Z,5.96
2019-04-28T01:37:31.007Z,5.98
2019-04-28T01:39:59.761Z,5.97
2019-04-28T01:42:30.116Z,5.98
2019-04-28T01:44:58.157Z,5.98
2019-04-28T01:47:26.463Z,5.96
2019-04-28T01:49:54.660Z,5.95
2019-04-28T01:52:22.862Z,5.94
2019-04-28T01:54:51.057Z,5.95
2019-04-28T01:57:21.364Z,5.96
2019-04-28T01:59:50.159Z,5.96
2019-04-28T02:02:19.922Z,5.97
2019-04-28T02:04:49.892Z,5.98
2019-04-28T02:07:18.318Z,6.00
2019-04-28T02:09:46.516Z,5.99
2019-04-28T02:12:14.714Z,6.00
2019-04-28T02:14:42.912Z,6.01
2019-04-28T02:17:11.115Z,6.00
2019-04-28T02:19:41.065Z,6.03
2019-04-28T02:22:25.735Z,6.03
2019-04-28T02:24:55.007Z,6.03
2019-04-28T02:27:23.620Z,6.07
2019-04-28T02:29:51.817Z,6.03
2019-04-28T02:32:21.281Z,6.02
2019-04-28T02:34:50.812Z,6.01
2019-04-28T02:37:20.563Z,6.00
2019-04-28T02:39:50.560Z,6.01
2019-04-28T02:42:20.899Z,6.02
2019-04-28T02:44:50.405Z,6.02
2019-04-28T02:47:21.608Z,6.01
2019-04-28T02:50:00.845Z,6.00
2019-04-28T02:52:47.781Z,6.01
2019-04-28T02:55:15.953Z,6.00
2019-04-28T02:57:44.165Z,5.98
2019-04-28T03:00:12.366Z,5.98
2019-04-28T03:02:41.602Z,5.95
2019-04-28T03:05:11.610Z,5.95
2019-04-28T03:07:41.043Z,5.92
2019-04-28T03:10:11.108Z,5.91
2019-04-28T03:12:41.408Z,5.91
2019-04-28T03:15:10.406Z,5.92
2019-04-28T03:17:40.738Z,5.91
2019-04-28T03:20:10.960Z,5.91
2019-04-28T03:22:40.864Z,5.88
2019-04-28T03:25:10.929Z,5.89
2019-04-28T03:27:57.384Z,5.90
2019-04-28T03:30:35.892Z,5.93
2019-04-28T03:33:12.000Z,5.96
2019-04-28T03:35:35.665Z,5.96
2019-04-28T03:38:03.868Z,5.92
2019-04-28T03:40:33.803Z,5.93
2019-04-28T03:43:03.326Z,5.94
2019-04-28T03:45:42.177Z,5.95
2019-04-28T03:48:11.480Z,5.91
2019-04-28T03:50:41.431Z,5.93
2019-04-28T03:53:11.081Z,5.90
2019-04-28T03:55:41.683Z,5.90
2019-04-28T03:58:10.447Z,5.90
2019-04-28T04:00:40.814Z,5.88
2019-04-28T04:03:10.965Z,5.84
2019-04-28T04:05:40.624Z,5.81
2019-04-28T04:08:10.905Z,5.81
2019-04-28T04:10:43.760Z,5.84
2019-04-28T04:13:25.568Z,5.83
2019-04-28T04:15:55.406Z,5.82
2019-04-28T04:18:25.263Z,5.85
2019-04-28T04:20:53.783Z,5.87
2019-04-28T04:23:23.356Z,5.85
2019-04-28T04:25:51.770Z,5.85
2019-04-28T04:28:20.685Z,5.86
2019-04-28T04:30:50.755Z,5.88
2019-04-28T04:33:20.809Z,5.91
2019-04-28T04:35:51.727Z,5.94
2019-04-28T04:38:21.762Z,5.98
2019-04-28T04:40:51.276Z,5.99
2019-04-28T04:43:23.013Z,6.01
2019-04-28T04:45:51.000Z,6.04
2019-04-28T04:48:21.528Z,6.05
2019-04-28T04:50:51.027Z,6.09
2019-04-28T04:53:20.786Z,6.09
2019-04-28T04:55:50.535Z,6.12
2019-04-28T04:58:21.219Z,6.14
2019-04-28T05:00:53.161Z,6.14
2019-04-28T05:03:23.326Z,6.16
2019-04-28T05:05:51.532Z,6.19
2019-04-28T05:08:20.278Z,6.22
2019-04-28T05:10:50.427Z,6.24
2019-04-28T05:13:20.083Z,6.28
2019-04-28T05:15:48.426Z,6.33
2019-04-28T05:18:16.616Z,6.39
2019-04-28T05:20:44.819Z,6.45
2019-04-28T05:23:14.640Z,6.50
2019-04-28T05:25:44.016Z,6.51
2019-04-28T05:28:12.541Z,6.59
2019-04-28T05:30:42.972Z,6.68
2019-04-28T05:33:12.314Z,6.73
2019-04-28T05:35:40.513Z,6.73
2019-04-28T05:38:09.972Z,6.81
2019-04-28T05:40:39.878Z,6.89
2019-04-28T05:43:08.447Z,6.96
2019-04-28T05:45:36.646Z,7.01
2019-04-28T05:48:04.843Z,7.07
2019-04-28T05:50:34.687Z,7.08
2019-04-28T05:53:04.831Z,7.12
2019-04-28T05:55:34.688Z,7.20
2019-04-28T05:58:10.502Z,7.28
2019-04-28T06:00:52.592Z,7.40
2019-04-28T06:03:22.436Z,7.50
2019-04-28T06:05:51.001Z,7.59
2019-04-28T06:08:27.147Z,7.56
2019-04-28T06:10:55.355Z,7.66
2019-04-28T06:13:23.904Z,7.85
2019-04-28T06:15:52.118Z,7.93
2019-04-28T06:18:20.627Z,8.06
2019-04-28T06:20:49.823Z,8.11
2019-04-28T06:23:18.033Z,8.11
2019-04-28T06:25:46.253Z,8.19
2019-04-28T06:28:14.460Z,8.25
2019-04-28T06:30:42.681Z,8.39
2019-04-28T06:33:10.883Z,8.42
2019-04-28T06:35:39.414Z,8.38
2019-04-28T06:38:07.912Z,8.45
2019-04-28T06:40:36.113Z,8.38
2019-04-28T06:43:04.320Z,8.32
2019-04-28T06:45:32.828Z,8.50
2019-04-28T06:48:01.026Z,8.74
2019-04-28T06:50:29.235Z,8.82
2019-04-28T06:52:57.435Z,8.86
2019-04-28T06:55:25.929Z,8.81
2019-04-28T06:57:54.126Z,8.87
2019-04-28T07:00:22.340Z,8.83
2019-04-28T07:02:50.537Z,9.07
2019-04-28T07:05:18.750Z,9.26
2019-04-28T07:07:46.995Z,9.21
2019-04-28T07:10:15.160Z,9.30
2019-04-28T07:12:43.373Z,9.20
2019-04-28T07:15:11.584Z,9.51
2019-04-28T07:17:39.778Z,9.55
2019-04-28T07:20:09.637Z,9.41
2019-04-28T07:22:37.837Z,9.43
2019-04-28T07:25:06.305Z,9.16
2019-04-28T07:27:34.508Z,9.08
2019-04-28T07:30:03.423Z,9.44
2019-04-28T07:32:31.637Z,9.41
2019-04-28T07:35:00.179Z,9.38
2019-04-28T07:37:28.385Z,9.83
2019-04-28T07:39:56.967Z,9.70
2019-04-28T07:42:25.119Z,9.79
2019-04-28T07:44:54.955Z,9.79
2019-04-28T07:47:23.165Z,10.68
2019-04-28T07:49:51.370Z,11.42
2019-04-28T07:52:21.221Z,11.33
2019-04-28T07:54:49.795Z,11.75
2019-04-28T07:57:17.987Z,12.42
2019-04-28T07:59:46.536Z,11.95
2019-04-28T08:02:14.740Z,12.65
2019-04-28T08:04:42.956Z,13.13
2019-04-28T08:07:11.170Z,11.71
2019-04-28T08:09:39.384Z,11.04
2019-04-28T08:12:07.582Z,10.83
2019-04-28T08:14:35.790Z,10.66
2019-04-28T08:17:03.999Z,10.33
2019-04-28T08:19:32.210Z,9.77
2019-04-28T08:22:00.408Z,9.46
2019-04-28T08:24:28.859Z,9.37
2019-04-28T08:26:57.354Z,9.27
2019-04-28T08:29:25.555Z,9.08
2019-04-28T08:31:55.409Z,8.99
2019-04-28T08:34:23.620Z,8.89
2019-04-28T08:36:52.106Z,8.76
2019-04-28T08:39:23.064Z,8.79
2019-04-28T08:41:50.246Z,9.50
2019-04-28T08:44:18.776Z,13.33
2019-04-28T08:46:47.363Z,13.64
2019-04-28T08:49:15.558Z,14.25
2019-04-28T08:51:43.764Z,15.00
2019-04-28T08:54:12.001Z,16.94
2019-04-28T08:56:40.199Z,18.08
2019-04-28T08:59:08.425Z,18.15
2019-04-28T09:01:36.638Z,18.89
2019-04-28T09:04:15.145Z,16.69
2019-04-28T09:06:35.115Z,17.09
2019-04-28T09:09:04.960Z,16.05
2019-04-28T09:11:37.383Z,15.12
2019-04-28T09:14:05.558Z,13.99
2019-04-28T09:16:34.054Z,13.70
2019-04-28T09:19:02.255Z,13.92
2019-04-28T09:21:30.469Z,13.49
2019-04-28T09:23:58.674Z,13.02
2019-04-28T09:26:26.905Z,12.95
2019-04-28T09:28:55.122Z,12.70
2019-04-28T09:31:23.336Z,12.46
2019-04-28T09:33:51.875Z,12.33
2019-04-28T09:36:20.106Z,12.64
2019-04-28T09:38:48.377Z,13.00
2019-04-28T09:41:16.901Z,13.33
2019-04-28T09:43:52.424Z,13.41
2019-04-28T09:46:22.343Z,13.61
2019-04-28T09:48:50.663Z,13.88
2019-04-28T09:51:18.866Z,13.81
2019-04-28T09:53:47.087Z,14.08
2019-04-28T09:56:15.282Z,14.58
2019-04-28T09:58:43.944Z,14.82
2019-04-28T10:01:12.271Z,15.48
2019-04-28T10:03:40.487Z,17.28
2019-04-28T10:06:08.800Z,18.84
2019-04-28T10:08:37.017Z,21.24
2019-04-28T10:11:05.226Z,22.76
2019-04-28T10:13:33.806Z,23.21
2019-04-28T10:16:02.330Z,19.88
2019-04-28T10:18:30.625Z,18.05
2019-04-28T10:20:59.149Z,18.39
2019-04-28T10:23:27.731Z,19.98
2019-04-28T10:25:56.211Z,18.50
2019-04-28T10:28:24.691Z,21.14
2019-04-28T10:30:52.898Z,24.32
2019-04-28T10:33:21.448Z,24.40
2019-04-28T10:35:49.664Z,24.44
2019-04-28T10:38:18.205Z,20.40
2019-04-28T10:40:53.742Z,18.39
2019-04-28T10:43:21.973Z,17.42
2019-04-28T10:45:51.043Z,15.50
2019-04-28T10:48:19.609Z,13.97
2019-04-28T10:50:47.886Z,12.59
2019-04-28T10:53:16.108Z,12.00
2019-04-28T10:55:44.364Z,11.39
2019-04-28T10:58:12.582Z,10.60
2019-04-28T11:00:41.705Z,9.87
2019-04-28T11:03:10.287Z,9.58
2019-04-28T11:05:40.120Z,9.28
2019-04-28T11:08:10.040Z,9.02
2019-04-28T11:10:38.244Z,8.97
2019-04-28T11:13:06.526Z,8.91
2019-04-28T11:15:36.378Z,8.76
2019-04-28T11:18:05.638Z,8.60
2019-04-28T11:20:33.855Z,8.61
2019-04-28T11:23:02.068Z,8.72
2019-04-28T11:25:30.694Z,9.05
2019-04-28T11:27:58.920Z,9.23
2019-04-28T11:30:28.591Z,9.50
2019-04-28T11:33:01.359Z,9.50
2019-04-28T11:35:31.811Z,10.00
2019-04-28T11:38:00.094Z,10.16
2019-04-28T11:40:28.430Z,10.63
2019-04-28T11:42:56.940Z,10.60
2019-04-28T11:45:26.326Z,11.18
2019-04-28T11:47:54.809Z,11.99
2019-04-28T11:50:23.024Z,12.76
2019-04-28T11:52:51.255Z,12.00
2019-04-28T11:55:19.464Z,11.12
2019-04-28T11:57:47.659Z,10.59
2019-04-28T12:00:29.927Z,10.44
2019-04-28T12:02:58.134Z,10.29
2019-04-28T12:05:34.407Z,10.40
2019-04-28T12:08:44.760Z,11.93
2019-04-28T12:11:14.941Z,15.26
2019-04-28T12:14:01.194Z,16.93
2019-04-28T12:16:47.541Z,17.88
2019-04-28T12:19:17.391Z,18.54
2019-04-28T12:21:45.930Z,18.98
2019-04-28T12:24:14.211Z,19.30
2019-04-28T12:26:42.415Z,19.60
2019-04-28T12:29:10.969Z,19.87
2019-04-28T12:31:39.442Z,20.13
2019-04-28T12:34:08.024Z,20.29
2019-04-28T12:36:36.222Z,20.44
2019-04-28T12:39:07.188Z,20.61
2019-04-28T12:41:35.388Z,20.75
2019-04-28T12:44:03.605Z,21.00
2019-04-28T12:46:32.067Z,21.18
2019-04-28T12:49:02.207Z,21.33
2019-04-28T12:51:30.775Z,21.49
2019-04-28T12:54:00.627Z,21.72
2019-04-28T12:56:28.835Z,21.95
2019-04-28T12:58:58.673Z,22.31
2019-04-28T13:01:43.809Z,22.53
2019-04-28T13:04:26.143Z,22.59
2019-04-28T13:07:04.968Z,22.60
2019-04-28T13:09:33.552Z,22.66
2019-04-28T13:12:01.759Z,22.70
2019-04-28T13:14:30.068Z,22.76
2019-04-28T13:16:58.802Z,22.97
2019-04-28T13:19:27.384Z,23.15
2019-04-28T13:21:55.578Z,23.27
2019-04-28T13:24:23.790Z,23.40
2019-04-28T13:26:52.423Z,23.52
2019-04-28T13:29:20.888Z,23.76
2019-04-28T13:31:49.092Z,23.88
2019-04-28T13:34:19.305Z,23.96
2019-04-28T13:36:47.484Z,24.04
2019-04-28T13:39:17.324Z,24.16
2019-04-28T13:41:45.532Z,24.23
2019-04-28T13:44:15.385Z,24.30
2019-04-28T13:46:43.594Z,24.30
2019-04-28T13:49:13.667Z,24.32
2019-04-28T13:51:44.893Z,24.29
2019-04-28T13:54:14.715Z,24.30
2019-04-28T13:56:42.974Z,24.22
2019-04-28T13:59:12.767Z,24.22
2019-04-28T14:01:54.769Z,24.15
2019-04-28T14:04:30.694Z,24.13
2019-04-28T14:06:59.088Z,24.10
2019-04-28T14:09:25.077Z,24.08
2019-04-28T14:11:50.791Z,24.07
2019-04-28T14:14:16.552Z,24.06
2019-04-28T14:16:42.366Z,24.05
2019-04-28T14:19:08.407Z,24.04
2019-04-28T14:21:34.358Z,24.03
2019-04-28T14:24:00.079Z,23.96
2019-04-28T14:26:25.846Z,24.01
2019-04-28T14:28:51.620Z,23.99
2019-04-28T14:31:17.727Z,23.99
2019-04-28T14:33:43.491Z,23.96
2019-04-28T14:36:09.374Z,23.95
2019-04-28T14:38:35.167Z,23.95
2019-04-28T14:41:00.977Z,23.92
2019-04-28T14:43:27.012Z,23.91
2019-04-28T14:45:52.844Z,23.92
2019-04-28T14:48:18.677Z,23.88
2019-04-28T14:50:44.389Z,23.90
2019-04-28T14:53:10.304Z,23.90
2019-04-28T14:55:36.432Z,23.91
2019-04-28T14:58:02.197Z,23.93
2019-04-28T15:00:30.195Z,23.92
2019-04-28T15:03:00.651Z,23.94
2019-04-28T15:05:28.364Z,23.95
2019-04-28T15:08:05.049Z,23.96
2019-04-28T15:10:32.776Z,23.99
2019-04-28T15:12:58.981Z,23.99
2019-04-28T15:15:24.964Z,23.98
2019-04-28T15:17:50.884Z,24.00
2019-04-28T15:20:16.669Z,24.02
2019-04-28T15:22:42.432Z,24.04
2019-04-28T15:25:08.189Z,24.06
2019-04-28T15:27:33.981Z,24.05
2019-04-28T15:30:11.040Z,24.06
2019-04-28T15:32:37.725Z,24.05
2019-04-28T15:35:04.495Z,24.08
2019-04-28T15:37:30.269Z,24.05
2019-04-28T15:39:56.030Z,24.01
2019-04-28T15:42:22.077Z,24.03
2019-04-28T15:44:47.853Z,24.03
2019-04-28T15:47:13.917Z,24.03
2019-04-28T15:49:39.675Z,24.02
2019-04-28T15:52:05.436Z,24.06
2019-04-28T15:54:31.188Z,24.04
2019-04-28T15:56:56.957Z,24.10
2019-04-28T15:59:23.006Z,24.10
2019-04-28T16:01:48.782Z,24.12
2019-04-28T16:04:18.009Z,24.09
2019-04-28T16:06:42.542Z,24.02
2019-04-28T16:09:10.483Z,24.02
2019-04-28T16:11:36.604Z,24.03
2019-04-28T16:14:02.365Z,24.02
2019-04-28T16:16:28.189Z,24.01
2019-04-28T16:18:54.267Z,24.03
2019-04-28T16:21:20.034Z,24.01
2019-04-28T16:23:46.061Z,24.02
2019-04-28T16:26:11.865Z,24.02
2019-04-28T16:28:37.625Z,23.97
2019-04-28T16:31:03.881Z,23.97
2019-04-28T16:33:29.992Z,23.93
2019-04-28T16:35:55.786Z,23.94
2019-04-28T16:38:23.639Z,23.94
2019-04-28T16:40:49.607Z,23.91
2019-04-28T16:43:15.724Z,23.91
2019-04-28T16:45:41.498Z,23.89
2019-04-28T16:48:07.569Z,23.89
2019-04-28T16:50:33.349Z,23.87
2019-04-28T16:52:59.117Z,23.87
2019-04-28T16:55:35.991Z,23.85
2019-04-28T16:58:20.405Z,23.85
2019-04-28T17:00:48.406Z,23.85
2019-04-28T17:03:14.266Z,23.79
2019-04-28T17:05:40.028Z,23.88
2019-04-28T17:08:05.817Z,23.88
2019-04-28T17:10:31.884Z,24.34
2019-04-28T17:12:58.011Z,24.14
2019-04-28T17:15:23.793Z,23.93
2019-04-28T17:17:49.857Z,23.93
2019-04-28T17:20:15.664Z,23.99
2019-04-28T17:22:41.472Z,23.99
2019-04-28T17:25:07.233Z,23.92
2019-04-28T17:27:33.345Z,23.92
2019-04-28T17:29:59.131Z,23.90
2019-04-28T17:32:24.952Z,23.90
2019-04-28T17:34:50.995Z,23.89
